Аэропорт: Кольцово. Екатеринбург

ICAO: USSS

METAR:
2018/07/16 19:30
USSS 161930Z 00000MPS CAVOK 14/13 Q1016 R08R/010060 R08L/010060 NOSIG RMK QFE742/0989
METAR:
2018/07/16 18:24
TAF USSS 161656Z 1618/1718 11003MPS 9999 SCT040 
      BECMG 1619/1620 5000 BR 
      TEMPO 1620/1701 0300 FG 
      BECMG 1701/1703 12003G08MPS 9999 NSW